Kolin, Czech Republic
Current Conditions -  °F | °C
As of 5:00 PM on Sunday 21 Dec 2014 (Local Time) from LKCV Reporting Station
Broken Clouds Broken Clouds  
Wind Chill: 35°   Ceiling: 4500
Heat Index: 41°   Visibility: 6mi
Dew Point: 34°   Wind: 10mph
Humidity: 76%   Direction: 250°WSW
Pressure: 30.3"   Gusts: NA
Location:  50.03°N, 15.19°E
Report Text: LKCV 211500Z 25009KT 9999 BKN045 05/01 Q1026 NOSIG
Loading
Personal Weather Stations






























Interactive Weather Map New forecast layout! Learn more

10-Day Weather Forecast

Advertisements
Track Severe Weather on mobile